sensor_id;sensor_type;location;lat;lon;timestamp;temperature;humidity
31799;DHT22;18374;51.136;3.502;2023-03-12T00:00:20;5.00;99.90
31799;DHT22;18374;51.136;3.502;2023-03-12T00:02:48;5.00;99.90
31799;DHT22;18374;51.136;3.502;2023-03-12T00:05:16;5.10;99.90
31799;DHT22;18374;51.136;3.502;2023-03-12T00:07:44;5.10;99.90
31799;DHT22;18374;51.136;3.502;2023-03-12T00:10:12;5.10;99.90
31799;DHT22;18374;51.136;3.502;2023-03-12T00:12:39;5.10;99.90
31799;DHT22;18374;51.136;3.502;2023-03-12T00:15:08;5.10;99.90
31799;DHT22;18374;51.136;3.502;2023-03-12T00:17:36;5.20;99.90
31799;DHT22;18374;51.136;3.502;2023-03-12T00:20:04;5.10;99.90
31799;DHT22;18374;51.136;3.502;2023-03-12T00:22:34;5.10;99.90
31799;DHT22;18374;51.136;3.502;2023-03-12T00:25:03;5.20;99.90
31799;DHT22;18374;51.136;3.502;2023-03-12T00:27:32;5.20;99.90
31799;DHT22;18374;51.136;3.502;2023-03-12T00:30:00;5.20;99.90
31799;DHT22;18374;51.136;3.502;2023-03-12T00:32:28;5.10;99.90
31799;DHT22;18374;51.136;3.502;2023-03-12T00:34:55;5.10;99.90
31799;DHT22;18374;51.136;3.502;2023-03-12T00:37:23;5.10;99.90
31799;DHT22;18374;51.136;3.502;2023-03-12T00:39:51;5.10;99.90
31799;DHT22;18374;51.136;3.502;2023-03-12T00:42:19;5.10;99.90
31799;DHT22;18374;51.136;3.502;2023-03-12T00:44:46;5.10;99.90
31799;DHT22;18374;51.136;3.502;2023-03-12T00:47:14;5.00;99.90
31799;DHT22;18374;51.136;3.502;2023-03-12T00:49:42;5.00;99.90
31799;DHT22;18374;51.136;3.502;2023-03-12T00:52:10;5.00;99.90
31799;DHT22;18374;51.136;3.502;2023-03-12T00:54:37;5.00;99.90
31799;DHT22;18374;51.136;3.502;2023-03-12T00:57:05;5.00;99.90
31799;DHT22;18374;51.136;3.502;2023-03-12T00:59:35;5.00;99.90
31799;DHT22;18374;51.136;3.502;2023-03-12T01:02:07;4.90;99.90
31799;DHT22;18374;51.136;3.502;2023-03-12T01:04:35;4.90;99.90
31799;DHT22;18374;51.136;3.502;2023-03-12T01:07:03;4.90;99.90
31799;DHT22;18374;51.136;3.502;2023-03-12T01:09:31;4.90;99.90
31799;DHT22;18374;51.136;3.502;2023-03-12T01:11:59;4.90;99.90
31799;DHT22;18374;51.136;3.502;2023-03-12T01:14:26;4.90;99.90
31799;DHT22;18374;51.136;3.502;2023-03-12T01:16:54;4.90;99.90
31799;DHT22;18374;51.136;3.502;2023-03-12T01:19:22;4.90;99.90
31799;DHT22;18374;51.136;3.502;2023-03-12T01:21:50;4.80;99.90
31799;DHT22;18374;51.136;3.502;2023-03-12T01:24:17;4.90;99.90
31799;DHT22;18374;51.136;3.502;2023-03-12T01:26:45;4.90;99.90
31799;DHT22;18374;51.136;3.502;2023-03-12T01:29:13;4.90;99.90
31799;DHT22;18374;51.136;3.502;2023-03-12T01:31:41;4.90;99.90
31799;DHT22;18374;51.136;3.502;2023-03-12T01:34:10;4.90;99.90
31799;DHT22;18374;51.136;3.502;2023-03-12T01:36:39;4.90;99.90
31799;DHT22;18374;51.136;3.502;2023-03-12T01:39:07;4.80;99.90
31799;DHT22;18374;51.136;3.502;2023-03-12T01:41:35;4.90;99.90
31799;DHT22;18374;51.136;3.502;2023-03-12T01:44:04;4.90;99.90
31799;DHT22;18374;51.136;3.502;2023-03-12T01:46:33;4.80;99.90
31799;DHT22;18374;51.136;3.502;2023-03-12T01:49:30;4.80;99.90
31799;DHT22;18374;51.136;3.502;2023-03-12T01:52:08;4.80;99.90
31799;DHT22;18374;51.136;3.502;2023-03-12T01:55:02;4.80;99.90
31799;DHT22;18374;51.136;3.502;2023-03-12T01:57:51;4.80;99.90
31799;DHT22;18374;51.136;3.502;2023-03-12T02:00:25;4.70;99.90
31799;DHT22;18374;51.136;3.502;2023-03-12T02:03:00;4.70;99.90
31799;DHT22;18374;51.136;3.502;2023-03-12T02:05:46;4.70;99.90
31799;DHT22;18374;51.136;3.502;2023-03-12T02:08:17;4.70;99.90
31799;DHT22;18374;51.136;3.502;2023-03-12T02:10:45;4.70;99.90
31799;DHT22;18374;51.136;3.502;2023-03-12T02:13:13;4.70;99.90
31799;DHT22;18374;51.136;3.502;2023-03-12T02:15:46;4.60;99.90
31799;DHT22;18374;51.136;3.502;2023-03-12T02:18:16;4.70;99.90
31799;DHT22;18374;51.136;3.502;2023-03-12T02:26:10;4.70;99.90
31799;DHT22;18374;51.136;3.502;2023-03-12T02:28:38;4.70;99.90
31799;DHT22;18374;51.136;3.502;2023-03-12T02:31:14;4.70;99.90
31799;DHT22;18374;51.136;3.502;2023-03-12T02:33:46;4.70;99.90
31799;DHT22;18374;51.136;3.502;2023-03-12T02:36:14;4.70;99.90
31799;DHT22;18374;51.136;3.502;2023-03-12T02:38:50;4.70;99.90
31799;DHT22;18374;51.136;3.502;2023-03-12T02:41:26;4.70;99.90
31799;DHT22;18374;51.136;3.502;2023-03-12T02:44:18;4.70;99.90
31799;DHT22;18374;51.136;3.502;2023-03-12T02:46:53;4.70;99.90
31799;DHT22;18374;51.136;3.502;2023-03-12T02:49:24;4.70;99.90
31799;DHT22;18374;51.136;3.502;2023-03-12T02:51:55;4.70;99.90
31799;DHT22;18374;51.136;3.502;2023-03-12T02:54:24;4.70;99.90
31799;DHT22;18374;51.136;3.502;2023-03-12T02:56:53;4.70;99.90
31799;DHT22;18374;51.136;3.502;2023-03-12T02:59:22;4.70;99.90
31799;DHT22;18374;51.136;3.502;2023-03-12T03:01:57;4.70;99.90
31799;DHT22;18374;51.136;3.502;2023-03-12T03:04:27;4.70;99.90
31799;DHT22;18374;51.136;3.502;2023-03-12T03:06:56;4.70;99.90
31799;DHT22;18374;51.136;3.502;2023-03-12T03:09:24;4.70;99.90
31799;DHT22;18374;51.136;3.502;2023-03-12T03:11:52;4.70;99.90
31799;DHT22;18374;51.136;3.502;2023-03-12T03:14:22;4.70;99.90
31799;DHT22;18374;51.136;3.502;2023-03-12T03:16:50;4.70;99.90
31799;DHT22;18374;51.136;3.502;2023-03-12T03:19:22;4.70;99.90
31799;DHT22;18374;51.136;3.502;2023-03-12T03:21:49;4.70;99.90
31799;DHT22;18374;51.136;3.502;2023-03-12T03:24:17;4.70;99.90
31799;DHT22;18374;51.136;3.502;2023-03-12T03:26:45;4.80;99.90
31799;DHT22;18374;51.136;3.502;2023-03-12T03:29:13;4.80;99.90
31799;DHT22;18374;51.136;3.502;2023-03-12T03:31:41;4.80;99.90
31799;DHT22;18374;51.136;3.502;2023-03-12T03:34:10;4.80;99.90
31799;DHT22;18374;51.136;3.502;2023-03-12T03:36:38;4.80;99.90
31799;DHT22;18374;51.136;3.502;2023-03-12T03:39:11;4.80;99.90
31799;DHT22;18374;51.136;3.502;2023-03-12T03:41:38;4.80;99.90
31799;DHT22;18374;51.136;3.502;2023-03-12T03:44:06;4.80;99.90
31799;DHT22;18374;51.136;3.502;2023-03-12T03:46:36;4.80;99.90
31799;DHT22;18374;51.136;3.502;2023-03-12T03:49:07;4.80;99.90
31799;DHT22;18374;51.136;3.502;2023-03-12T03:51:37;4.80;99.90
31799;DHT22;18374;51.136;3.502;2023-03-12T03:54:11;4.80;99.90
31799;DHT22;18374;51.136;3.502;2023-03-12T03:56:40;4.80;99.90
31799;DHT22;18374;51.136;3.502;2023-03-12T03:59:09;4.80;99.90
31799;DHT22;18374;51.136;3.502;2023-03-12T04:01:39;4.90;99.90
31799;DHT22;18374;51.136;3.502;2023-03-12T04:04:06;4.90;99.90
31799;DHT22;18374;51.136;3.502;2023-03-12T04:06:35;4.90;99.90
31799;DHT22;18374;51.136;3.502;2023-03-12T04:09:03;4.90;99.90
31799;DHT22;18374;51.136;3.502;2023-03-12T04:11:35;4.90;99.90
31799;DHT22;18374;51.136;3.502;2023-03-12T04:14:05;4.90;99.90
31799;DHT22;18374;51.136;3.502;2023-03-12T04:16:34;4.80;99.90
31799;DHT22;18374;51.136;3.502;2023-03-12T04:19:02;4.80;99.90
31799;DHT22;18374;51.136;3.502;2023-03-12T04:21:30;4.80;99.90
31799;DHT22;18374;51.136;3.502;2023-03-12T04:23:58;4.80;99.90
31799;DHT22;18374;51.136;3.502;2023-03-12T04:26:30;4.80;99.90
31799;DHT22;18374;51.136;3.502;2023-03-12T04:28:59;4.80;99.90
31799;DHT22;18374;51.136;3.502;2023-03-12T04:31:27;4.80;99.90
31799;DHT22;18374;51.136;3.502;2023-03-12T04:33:55;4.80;99.90
31799;DHT22;18374;51.136;3.502;2023-03-12T04:36:24;4.80;99.90
31799;DHT22;18374;51.136;3.502;2023-03-12T04:38:54;4.80;99.90
31799;DHT22;18374;51.136;3.502;2023-03-12T04:41:26;4.80;99.90
31799;DHT22;18374;51.136;3.502;2023-03-12T04:44:02;4.80;99.90
31799;DHT22;18374;51.136;3.502;2023-03-12T04:46:30;4.90;99.90
31799;DHT22;18374;51.136;3.502;2023-03-12T04:48:58;4.90;99.90
31799;DHT22;18374;51.136;3.502;2023-03-12T04:51:30;4.90;99.90
31799;DHT22;18374;51.136;3.502;2023-03-12T04:54:01;4.90;99.90
31799;DHT22;18374;51.136;3.502;2023-03-12T04:56:29;4.90;99.90
31799;DHT22;18374;51.136;3.502;2023-03-12T04:58:57;4.90;99.90
31799;DHT22;18374;51.136;3.502;2023-03-12T05:01:32;4.90;99.90
31799;DHT22;18374;51.136;3.502;2023-03-12T05:04:07;4.90;99.90
31799;DHT22;18374;51.136;3.502;2023-03-12T05:06:35;4.90;99.90
31799;DHT22;18374;51.136;3.502;2023-03-12T05:09:04;5.00;99.90
31799;DHT22;18374;51.136;3.502;2023-03-12T05:11:32;5.00;99.90
31799;DHT22;18374;51.136;3.502;2023-03-12T05:14:00;5.00;99.90
31799;DHT22;18374;51.136;3.502;2023-03-12T05:16:28;5.00;99.90
31799;DHT22;18374;51.136;3.502;2023-03-12T05:18:56;5.10;99.90
31799;DHT22;18374;51.136;3.502;2023-03-12T05:21:25;5.10;99.90
31799;DHT22;18374;51.136;3.502;2023-03-12T05:23:55;5.10;99.90
31799;DHT22;18374;51.136;3.502;2023-03-12T05:26:31;5.10;99.90
31799;DHT22;18374;51.136;3.502;2023-03-12T05:29:10;5.10;99.90
31799;DHT22;18374;51.136;3.502;2023-03-12T05:31:38;5.20;99.90
31799;DHT22;18374;51.136;3.502;2023-03-12T05:34:11;5.20;99.90
31799;DHT22;18374;51.136;3.502;2023-03-12T05:36:42;5.20;99.90
31799;DHT22;18374;51.136;3.502;2023-03-12T05:39:12;5.30;99.90
31799;DHT22;18374;51.136;3.502;2023-03-12T05:41:40;5.30;99.90
31799;DHT22;18374;51.136;3.502;2023-03-12T05:44:13;5.30;99.90
31799;DHT22;18374;51.136;3.502;2023-03-12T05:46:45;5.40;99.90
31799;DHT22;18374;51.136;3.502;2023-03-12T05:49:13;5.40;99.90
31799;DHT22;18374;51.136;3.502;2023-03-12T05:51:41;5.50;99.90
31799;DHT22;18374;51.136;3.502;2023-03-12T05:54:10;5.50;99.90
31799;DHT22;18374;51.136;3.502;2023-03-12T05:56:38;5.60;99.90
31799;DHT22;18374;51.136;3.502;2023-03-12T05:59:07;5.70;99.90
31799;DHT22;18374;51.136;3.502;2023-03-12T06:01:39;5.70;99.90
31799;DHT22;18374;51.136;3.502;2023-03-12T06:04:07;5.70;99.90
31799;DHT22;18374;51.136;3.502;2023-03-12T06:06:36;5.70;99.90
31799;DHT22;18374;51.136;3.502;2023-03-12T06:09:04;5.80;99.90
31799;DHT22;18374;51.136;3.502;2023-03-12T06:11:33;5.80;99.90
31799;DHT22;18374;51.136;3.502;2023-03-12T06:14:02;5.90;99.90
31799;DHT22;18374;51.136;3.502;2023-03-12T06:16:30;5.90;99.90
31799;DHT22;18374;51.136;3.502;2023-03-12T06:19:01;6.00;99.90
31799;DHT22;18374;51.136;3.502;2023-03-12T06:21:33;6.00;99.90
31799;DHT22;18374;51.136;3.502;2023-03-12T06:24:04;6.10;99.90
31799;DHT22;18374;51.136;3.502;2023-03-12T06:26:49;6.10;99.90
31799;DHT22;18374;51.136;3.502;2023-03-12T06:29:17;6.20;99.90
31799;DHT22;18374;51.136;3.502;2023-03-12T06:31:44;6.30;99.90
31799;DHT22;18374;51.136;3.502;2023-03-12T06:34:14;6.30;99.90
31799;DHT22;18374;51.136;3.502;2023-03-12T06:36:43;6.30;99.90
31799;DHT22;18374;51.136;3.502;2023-03-12T06:39:11;6.40;99.90
31799;DHT22;18374;51.136;3.502;2023-03-12T06:41:38;6.50;99.90
31799;DHT22;18374;51.136;3.502;2023-03-12T06:44:08;6.50;99.90
31799;DHT22;18374;51.136;3.502;2023-03-12T06:46:36;6.60;99.90
31799;DHT22;18374;51.136;3.502;2023-03-12T06:49:04;6.60;99.90
31799;DHT22;18374;51.136;3.502;2023-03-12T06:51:32;6.60;99.90
31799;DHT22;18374;51.136;3.502;2023-03-12T06:53:59;6.70;99.90
31799;DHT22;18374;51.136;3.502;2023-03-12T06:56:29;6.80;99.90
31799;DHT22;18374;51.136;3.502;2023-03-12T06:58:58;6.80;99.90
31799;DHT22;18374;51.136;3.502;2023-03-12T07:01:26;6.90;99.90
31799;DHT22;18374;51.136;3.502;2023-03-12T07:03:54;6.90;99.90
31799;DHT22;18374;51.136;3.502;2023-03-12T07:06:22;7.00;99.90
31799;DHT22;18374;51.136;3.502;2023-03-12T07:08:51;7.00;99.90
31799;DHT22;18374;51.136;3.502;2023-03-12T07:11:19;7.10;99.90
31799;DHT22;18374;51.136;3.502;2023-03-12T07:13:47;7.20;99.90
31799;DHT22;18374;51.136;3.502;2023-03-12T07:16:15;7.20;99.90
31799;DHT22;18374;51.136;3.502;2023-03-12T07:18:42;7.30;99.90
31799;DHT22;18374;51.136;3.502;2023-03-12T07:21:10;7.40;99.90
31799;DHT22;18374;51.136;3.502;2023-03-12T07:23:38;7.50;99.90
31799;DHT22;18374;51.136;3.502;2023-03-12T07:26:06;7.50;99.90
31799;DHT22;18374;51.136;3.502;2023-03-12T07:28:34;7.60;99.90
31799;DHT22;18374;51.136;3.502;2023-03-12T07:31:03;7.70;99.90
31799;DHT22;18374;51.136;3.502;2023-03-12T07:33:31;7.80;99.90
31799;DHT22;18374;51.136;3.502;2023-03-12T07:35:59;7.80;99.90
31799;DHT22;18374;51.136;3.502;2023-03-12T07:38:28;7.80;99.90
31799;DHT22;18374;51.136;3.502;2023-03-12T07:40:57;7.80;99.90
31799;DHT22;18374;51.136;3.502;2023-03-12T07:43:26;7.90;99.90
31799;DHT22;18374;51.136;3.502;2023-03-12T07:45:54;8.00;99.90
31799;DHT22;18374;51.136;3.502;2023-03-12T07:48:22;8.10;99.90
31799;DHT22;18374;51.136;3.502;2023-03-12T07:50:50;8.10;99.90
31799;DHT22;18374;51.136;3.502;2023-03-12T07:53:18;8.10;99.90
31799;DHT22;18374;51.136;3.502;2023-03-12T07:55:46;8.20;99.90
31799;DHT22;18374;51.136;3.502;2023-03-12T07:58:15;8.20;99.90
31799;DHT22;18374;51.136;3.502;2023-03-12T08:00:44;8.30;99.90
31799;DHT22;18374;51.136;3.502;2023-03-12T08:03:12;8.40;99.90
31799;DHT22;18374;51.136;3.502;2023-03-12T08:05:40;8.50;99.90
31799;DHT22;18374;51.136;3.502;2023-03-12T08:08:08;8.60;99.90
31799;DHT22;18374;51.136;3.502;2023-03-12T08:10:36;8.70;99.90
31799;DHT22;18374;51.136;3.502;2023-03-12T08:13:04;8.80;99.90
31799;DHT22;18374;51.136;3.502;2023-03-12T08:15:32;8.80;99.90
31799;DHT22;18374;51.136;3.502;2023-03-12T08:18:00;8.80;99.90
31799;DHT22;18374;51.136;3.502;2023-03-12T08:20:28;8.90;99.90
31799;DHT22;18374;51.136;3.502;2023-03-12T08:23:00;9.00;99.90
31799;DHT22;18374;51.136;3.502;2023-03-12T08:25:31;9.00;99.90
31799;DHT22;18374;51.136;3.502;2023-03-12T08:28:04;9.10;99.90
31799;DHT22;18374;51.136;3.502;2023-03-12T08:30:32;9.10;99.90
31799;DHT22;18374;51.136;3.502;2023-03-12T08:33:00;9.10;99.90
31799;DHT22;18374;51.136;3.502;2023-03-12T08:35:28;9.10;99.90
31799;DHT22;18374;51.136;3.502;2023-03-12T08:37:56;9.10;99.90
31799;DHT22;18374;51.136;3.502;2023-03-12T08:40:23;9.10;99.90
31799;DHT22;18374;51.136;3.502;2023-03-12T08:42:51;9.10;99.90
31799;DHT22;18374;51.136;3.502;2023-03-12T08:45:19;9.20;99.90
31799;DHT22;18374;51.136;3.502;2023-03-12T08:47:47;9.20;99.90
31799;DHT22;18374;51.136;3.502;2023-03-12T08:50:15;9.30;99.90
31799;DHT22;18374;51.136;3.502;2023-03-12T08:52:43;9.40;99.90
31799;DHT22;18374;51.136;3.502;2023-03-12T08:55:11;9.50;99.90
31799;DHT22;18374;51.136;3.502;2023-03-12T08:57:39;9.50;99.90
31799;DHT22;18374;51.136;3.502;2023-03-12T09:00:08;9.70;99.90
31799;DHT22;18374;51.136;3.502;2023-03-12T09:02:45;9.90;99.90
31799;DHT22;18374;51.136;3.502;2023-03-12T09:05:13;10.00;99.90
31799;DHT22;18374;51.136;3.502;2023-03-12T09:07:41;10.10;99.90
31799;DHT22;18374;51.136;3.502;2023-03-12T09:10:09;10.20;99.90
31799;DHT22;18374;51.136;3.502;2023-03-12T09:12:37;10.30;99.90
31799;DHT22;18374;51.136;3.502;2023-03-12T09:15:06;10.40;99.90
31799;DHT22;18374;51.136;3.502;2023-03-12T09:17:35;10.40;99.90
31799;DHT22;18374;51.136;3.502;2023-03-12T09:20:05;10.50;99.90
31799;DHT22;18374;51.136;3.502;2023-03-12T09:22:35;10.50;99.90
31799;DHT22;18374;51.136;3.502;2023-03-12T09:25:05;10.50;99.90
31799;DHT22;18374;51.136;3.502;2023-03-12T09:27:42;10.60;99.90
31799;DHT22;18374;51.136;3.502;2023-03-12T09:30:16;10.60;99.90
31799;DHT22;18374;51.136;3.502;2023-03-12T09:32:46;10.50;99.90
31799;DHT22;18374;51.136;3.502;2023-03-12T09:35:15;10.50;99.90
31799;DHT22;18374;51.136;3.502;2023-03-12T09:37:43;10.50;99.90
31799;DHT22;18374;51.136;3.502;2023-03-12T09:40:17;10.60;99.90
31799;DHT22;18374;51.136;3.502;2023-03-12T09:42:51;10.70;99.90
31799;DHT22;18374;51.136;3.502;2023-03-12T09:45:25;11.00;99.90
31799;DHT22;18374;51.136;3.502;2023-03-12T09:48:00;11.10;99.90
31799;DHT22;18374;51.136;3.502;2023-03-12T09:50:37;11.10;99.90
31799;DHT22;18374;51.136;3.502;2023-03-12T09:53:32;11.30;99.90
31799;DHT22;18374;51.136;3.502;2023-03-12T09:56:04;11.30;99.90
31799;DHT22;18374;51.136;3.502;2023-03-12T09:58:37;11.30;99.90
31799;DHT22;18374;51.136;3.502;2023-03-12T10:07:31;11.30;99.90
31799;DHT22;18374;51.136;3.502;2023-03-12T10:10:18;11.50;99.90
31799;DHT22;18374;51.136;3.502;2023-03-12T10:22:06;11.80;99.90
31799;DHT22;18374;51.136;3.502;2023-03-12T10:27:34;12.10;99.90
31799;DHT22;18374;51.136;3.502;2023-03-12T10:30:19;12.20;99.90
31799;DHT22;18374;51.136;3.502;2023-03-12T10:32:55;12.00;99.90
31799;DHT22;18374;51.136;3.502;2023-03-12T10:35:27;12.00;99.90
31799;DHT22;18374;51.136;3.502;2023-03-12T10:38:00;12.10;99.90
31799;DHT22;18374;51.136;3.502;2023-03-12T10:40:35;12.20;99.90
31799;DHT22;18374;51.136;3.502;2023-03-12T10:43:05;12.20;99.90
31799;DHT22;18374;51.136;3.502;2023-03-12T10:45:38;12.30;99.90
31799;DHT22;18374;51.136;3.502;2023-03-12T10:48:25;12.40;99.90
31799;DHT22;18374;51.136;3.502;2023-03-12T10:51:02;12.50;99.90
31799;DHT22;18374;51.136;3.502;2023-03-12T10:53:40;12.50;99.90
31799;DHT22;18374;51.136;3.502;2023-03-12T10:56:16;12.70;99.90
31799;DHT22;18374;51.136;3.502;2023-03-12T10:58:50;12.70;99.90
31799;DHT22;18374;51.136;3.502;2023-03-12T11:03:52;13.00;99.90
31799;DHT22;18374;51.136;3.502;2023-03-12T11:06:35;13.30;99.90
31799;DHT22;18374;51.136;3.502;2023-03-12T11:09:18;13.50;99.90
31799;DHT22;18374;51.136;3.502;2023-03-12T11:11:48;13.70;99.90
31799;DHT22;18374;51.136;3.502;2023-03-12T11:14:22;13.70;99.90
31799;DHT22;18374;51.136;3.502;2023-03-12T11:16:56;13.90;99.90
31799;DHT22;18374;51.136;3.502;2023-03-12T11:19:32;13.80;99.90
31799;DHT22;18374;51.136;3.502;2023-03-12T11:22:06;13.70;99.90
31799;DHT22;18374;51.136;3.502;2023-03-12T11:25:05;13.60;99.90
31799;DHT22;18374;51.136;3.502;2023-03-12T11:27:45;13.40;99.90
31799;DHT22;18374;51.136;3.502;2023-03-12T11:30:23;13.30;99.90
31799;DHT22;18374;51.136;3.502;2023-03-12T11:33:01;13.10;99.90
31799;DHT22;18374;51.136;3.502;2023-03-12T11:38:40;12.90;99.90
31799;DHT22;18374;51.136;3.502;2023-03-12T11:48:04;13.50;99.90
31799;DHT22;18374;51.136;3.502;2023-03-12T12:03:04;14.00;99.90
31799;DHT22;18374;51.136;3.502;2023-03-12T12:09:18;14.10;99.90
31799;DHT22;18374;51.136;3.502;2023-03-12T12:21:20;14.10;99.90
31799;DHT22;18374;51.136;3.502;2023-03-12T12:27:14;14.30;99.90
31799;DHT22;18374;51.136;3.502;2023-03-12T12:33:01;14.10;99.90
31799;DHT22;18374;51.136;3.502;2023-03-12T12:35:36;14.10;99.90
31799;DHT22;18374;51.136;3.502;2023-03-12T12:38:22;14.00;99.90
31799;DHT22;18374;51.136;3.502;2023-03-12T12:41:03;13.90;99.90
31799;DHT22;18374;51.136;3.502;2023-03-12T12:43:52;13.80;99.90
31799;DHT22;18374;51.136;3.502;2023-03-12T13:00:50;13.50;99.90
31799;DHT22;18374;51.136;3.502;2023-03-12T13:03:23;13.50;99.90
31799;DHT22;18374;51.136;3.502;2023-03-12T13:16:32;13.70;99.90
31799;DHT22;18374;51.136;3.502;2023-03-12T13:27:43;13.80;99.90
31799;DHT22;18374;51.136;3.502;2023-03-12T13:30:45;14.00;99.90
31799;DHT22;18374;51.136;3.502;2023-03-12T13:33:16;13.80;99.90
31799;DHT22;18374;51.136;3.502;2023-03-12T13:36:26;13.60;99.90
31799;DHT22;18374;51.136;3.502;2023-03-12T13:41:50;13.20;99.90
31799;DHT22;18374;51.136;3.502;2023-03-12T13:49:53;13.50;99.90
31799;DHT22;18374;51.136;3.502;2023-03-12T13:52:33;14.00;99.90
31799;DHT22;18374;51.136;3.502;2023-03-12T13:55:25;14.40;99.90
31799;DHT22;18374;51.136;3.502;2023-03-12T13:58:08;14.30;99.90
31799;DHT22;18374;51.136;3.502;2023-03-12T14:01:14;14.40;99.90
31799;DHT22;18374;51.136;3.502;2023-03-12T14:03:47;14.60;99.90
31799;DHT22;18374;51.136;3.502;2023-03-12T14:06:20;14.50;99.90
31799;DHT22;18374;51.136;3.502;2023-03-12T14:15:03;14.60;99.90
31799;DHT22;18374;51.136;3.502;2023-03-12T14:17:32;14.30;99.90
31799;DHT22;18374;51.136;3.502;2023-03-12T14:20:18;14.00;99.90
31799;DHT22;18374;51.136;3.502;2023-03-12T14:22:53;14.00;99.90
31799;DHT22;18374;51.136;3.502;2023-03-12T14:25:41;13.90;99.90
31799;DHT22;18374;51.136;3.502;2023-03-12T14:28:13;13.70;99.90
31799;DHT22;18374;51.136;3.502;2023-03-12T14:31:03;13.50;99.90
31799;DHT22;18374;51.136;3.502;2023-03-12T14:33:48;13.20;99.90
31799;DHT22;18374;51.136;3.502;2023-03-12T14:36:21;12.90;99.90
31799;DHT22;18374;51.136;3.502;2023-03-12T14:38:57;12.70;99.90
31799;DHT22;18374;51.136;3.502;2023-03-12T14:41:34;12.70;99.90
31799;DHT22;18374;51.136;3.502;2023-03-12T14:44:05;12.60;99.90
31799;DHT22;18374;51.136;3.502;2023-03-12T14:47:04;12.60;99.90
31799;DHT22;18374;51.136;3.502;2023-03-12T14:49:42;12.60;99.90
31799;DHT22;18374;51.136;3.502;2023-03-12T14:52:12;12.60;99.90
31799;DHT22;18374;51.136;3.502;2023-03-12T14:54:58;12.50;99.90
31799;DHT22;18374;51.136;3.502;2023-03-12T14:57:28;12.40;99.90
31799;DHT22;18374;51.136;3.502;2023-03-12T15:00:00;12.40;99.90
31799;DHT22;18374;51.136;3.502;2023-03-12T15:02:30;12.30;99.90
31799;DHT22;18374;51.136;3.502;2023-03-12T15:04:59;12.30;99.90
31799;DHT22;18374;51.136;3.502;2023-03-12T15:07:31;12.40;99.90
31799;DHT22;18374;51.136;3.502;2023-03-12T15:10:03;12.30;99.90
31799;DHT22;18374;51.136;3.502;2023-03-12T15:12:36;12.40;99.90
31799;DHT22;18374;51.136;3.502;2023-03-12T15:18:06;12.30;99.90
31799;DHT22;18374;51.136;3.502;2023-03-12T15:20:38;12.30;99.90
31799;DHT22;18374;51.136;3.502;2023-03-12T15:23:09;12.20;99.90
31799;DHT22;18374;51.136;3.502;2023-03-12T15:25:39;12.10;99.90
31799;DHT22;18374;51.136;3.502;2023-03-12T15:28:25;12.00;99.90
31799;DHT22;18374;51.136;3.502;2023-03-12T15:31:09;12.00;99.90
31799;DHT22;18374;51.136;3.502;2023-03-12T15:33:43;12.00;99.90
31799;DHT22;18374;51.136;3.502;2023-03-12T15:36:17;12.00;99.90
31799;DHT22;18374;51.136;3.502;2023-03-12T15:38:55;12.10;99.90
31799;DHT22;18374;51.136;3.502;2023-03-12T15:41:41;12.10;99.90
31799;DHT22;18374;51.136;3.502;2023-03-12T15:44:20;12.00;99.90
31799;DHT22;18374;51.136;3.502;2023-03-12T15:47:05;12.00;99.90
31799;DHT22;18374;51.136;3.502;2023-03-12T15:49:38;12.00;99.90
31799;DHT22;18374;51.136;3.502;2023-03-12T15:57:50;11.80;99.90
31799;DHT22;18374;51.136;3.502;2023-03-12T16:00:30;11.80;99.90
31799;DHT22;18374;51.136;3.502;2023-03-12T16:03:02;11.70;99.90
31799;DHT22;18374;51.136;3.502;2023-03-12T16:05:37;11.70;99.90
31799;DHT22;18374;51.136;3.502;2023-03-12T16:08:26;11.70;99.90
31799;DHT22;18374;51.136;3.502;2023-03-12T16:11:35;11.60;99.90
31799;DHT22;18374;51.136;3.502;2023-03-12T16:14:12;11.60;99.90
31799;DHT22;18374;51.136;3.502;2023-03-12T16:16:43;11.60;99.90
31799;DHT22;18374;51.136;3.502;2023-03-12T16:19:13;11.60;99.90
31799;DHT22;18374;51.136;3.502;2023-03-12T16:21:42;11.60;99.90
31799;DHT22;18374;51.136;3.502;2023-03-12T16:24:11;11.60;99.90
31799;DHT22;18374;51.136;3.502;2023-03-12T16:26:53;11.50;99.90
31799;DHT22;18374;51.136;3.502;2023-03-12T16:29:34;11.50;99.90
31799;DHT22;18374;51.136;3.502;2023-03-12T16:32:16;11.50;99.90
31799;DHT22;18374;51.136;3.502;2023-03-12T16:34:44;11.40;99.90
31799;DHT22;18374;51.136;3.502;2023-03-12T16:37:12;11.30;99.90
31799;DHT22;18374;51.136;3.502;2023-03-12T16:39:40;11.30;99.90
31799;DHT22;18374;51.136;3.502;2023-03-12T16:42:15;11.30;99.90
31799;DHT22;18374;51.136;3.502;2023-03-12T16:44:45;11.30;99.90
31799;DHT22;18374;51.136;3.502;2023-03-12T16:47:13;11.30;99.90
31799;DHT22;18374;51.136;3.502;2023-03-12T16:49:42;11.20;99.90
31799;DHT22;18374;51.136;3.502;2023-03-12T16:52:18;11.20;99.90
31799;DHT22;18374;51.136;3.502;2023-03-12T16:54:50;11.20;99.90
31799;DHT22;18374;51.136;3.502;2023-03-12T16:57:36;11.20;99.90
31799;DHT22;18374;51.136;3.502;2023-03-12T17:00:15;11.20;99.90
31799;DHT22;18374;51.136;3.502;2023-03-12T17:02:47;11.10;99.90
31799;DHT22;18374;51.136;3.502;2023-03-12T17:05:15;11.10;99.90
31799;DHT22;18374;51.136;3.502;2023-03-12T17:07:43;11.10;99.90
31799;DHT22;18374;51.136;3.502;2023-03-12T17:10:13;11.00;99.90
31799;DHT22;18374;51.136;3.502;2023-03-12T17:12:42;11.00;99.90
31799;DHT22;18374;51.136;3.502;2023-03-12T17:15:30;11.00;99.90
31799;DHT22;18374;51.136;3.502;2023-03-12T17:17:59;11.00;99.90
31799;DHT22;18374;51.136;3.502;2023-03-12T17:20:30;11.00;99.90
31799;DHT22;18374;51.136;3.502;2023-03-12T17:23:03;11.00;99.90
31799;DHT22;18374;51.136;3.502;2023-03-12T17:25:34;11.00;99.90
31799;DHT22;18374;51.136;3.502;2023-03-12T17:28:03;10.90;99.90
31799;DHT22;18374;51.136;3.502;2023-03-12T17:30:32;10.80;99.90
31799;DHT22;18374;51.136;3.502;2023-03-12T17:33:11;10.80;99.90
31799;DHT22;18374;51.136;3.502;2023-03-12T17:35:43;10.80;99.90
31799;DHT22;18374;51.136;3.502;2023-03-12T17:38:11;10.80;99.90
31799;DHT22;18374;51.136;3.502;2023-03-12T17:40:41;10.70;99.90
31799;DHT22;18374;51.136;3.502;2023-03-12T17:43:10;10.70;99.90
31799;DHT22;18374;51.136;3.502;2023-03-12T17:45:38;10.60;99.90
31799;DHT22;18374;51.136;3.502;2023-03-12T17:48:07;10.60;99.90
31799;DHT22;18374;51.136;3.502;2023-03-12T17:50:35;10.50;99.90
31799;DHT22;18374;51.136;3.502;2023-03-12T17:53:03;10.50;99.90
31799;DHT22;18374;51.136;3.502;2023-03-12T17:55:30;10.50;99.90
31799;DHT22;18374;51.136;3.502;2023-03-12T17:57:58;10.50;99.90
31799;DHT22;18374;51.136;3.502;2023-03-12T18:00:26;10.40;99.90
31799;DHT22;18374;51.136;3.502;2023-03-12T18:02:54;10.40;99.90
31799;DHT22;18374;51.136;3.502;2023-03-12T18:05:22;10.40;99.90
31799;DHT22;18374;51.136;3.502;2023-03-12T18:07:50;10.40;99.90
31799;DHT22;18374;51.136;3.502;2023-03-12T18:10:18;10.40;99.90
31799;DHT22;18374;51.136;3.502;2023-03-12T18:12:46;10.40;99.90
31799;DHT22;18374;51.136;3.502;2023-03-12T18:15:14;10.40;99.90